Nature

Herzliya Airport is located in the city of Herzliya at central Israel. The airport is mainly used by flight schools and for general aviation. It has no terminal.

AT EILAT AIRPORT YOU CAN FIND A SINGLE RUNWAY (11/29).

Scenery:

Sim Download Size Author
P3D & FSX LLHZ Herzliya 219.5MB Freeware Nis Tesler
P3D & FSX ICVFR Herzliya 22.8MB Freeware Chris Bell
X-Plane LLHZ – Herzliya Airport v1.0 7.63MB Freeware X-Plane.org

Charts:

File Name
General Aerodrome Chart
CVFR Entry / Exit Routes (CVFR)
CVFR Training Zones Chart
CVFR Helicopters Training Zones Chart
CVFR Traffic Pattrens Chart
Departure ATS Departure

METAR & TAF:

Available data for LLSD from the past hour
SDE DOV AIRPORT
Metar
LLSD 201450Z 30006KT CAVOK 16/08 Q1017

14:50 UTC

Wind: 300° 6kt

Visibility:

Sky:

Temp: 16 deg C / 60.8 deg F

Dewpoint: 8 deg C / 46.4 deg F

Pressure: 1017 hPa

TAF
TAF LLSD 201102Z 2012/2112 29008KT CAVOK BECMG 2015/2017 10004KT BECMG 2109/2111 29008KT TX18/2012Z TN08/2104Z